Time;durP1;ratioP1;P1;durP2;ratioP2;P2;SDS_P1;SDS_P2;PMS_P1;PMS_P2;Temp;Humidity;BMP_temperature;BMP_pressure;BME280_temperature;BME280_humidity;BME280_pressure;Samples;Min_cycle;Max_cycle;Signal;HPM_P1;HPM_P2
2022/12/04 00:00:44;;;;;;;17.90;14.10;;;;;;;2.07;100.00;98368.19;4237821;27;20213;-51
2022/12/04 00:02:45;;;;;;;14.95;13.45;;;;;;;2.00;100.00;98367.31;4205853;28;20297;-50
2022/12/04 00:04:47;;;;;;;17.98;12.80;;;;;;;2.01;100.00;98376.25;4226036;27;20222;-50
2022/12/04 00:06:49;;;;;;;15.63;13.32;;;;;;;2.05;100.00;98372.97;4226153;27;20248;-51
2022/12/04 00:08:59;;;;;;;15.80;13.13;;;;;;;2.02;100.00;98378.75;4236570;27;20598;-51
2022/12/04 00:11:03;;;;;;;18.38;13.88;;;;;;;1.98;100.00;98371.25;4238100;27;20202;-50
2022/12/04 00:13:05;;;;;;;14.68;13.00;;;;;;;2.17;100.00;98381.31;4220730;27;20704;-51
2022/12/04 00:15:08;;;;;;;18.42;12.35;;;;;;;2.24;100.00;98374.91;4223863;27;20214;-50
2022/12/04 00:17:25;;;;;;;14.95;12.75;;;;;;;2.33;100.00;98373.69;4236357;27;20266;-51
2022/12/04 00:19:27;;;;;;;17.80;11.75;;;;;;;2.31;100.00;98378.47;4220979;27;20210;-50
2022/12/04 00:21:29;;;;;;;15.40;10.55;;;;;;;2.35;100.00;98371.63;4239243;27;20313;-51
2022/12/04 00:23:32;;;;;;;15.60;12.20;;;;;;;2.34;100.00;98372.66;4237657;27;20229;-51
2022/12/04 00:25:33;;;;;;;15.93;11.52;;;;;;;2.43;100.00;98371.47;4218349;27;20259;-51
2022/12/04 00:27:41;;;;;;;16.20;11.10;;;;;;;2.28;100.00;98359.97;4208135;27;20202;-50
2022/12/04 00:29:43;;;;;;;13.63;11.35;;;;;;;2.26;100.00;98359.34;4224149;27;20718;-51
2022/12/04 00:31:45;;;;;;;14.13;12.73;;;;;;;2.40;100.00;98362.94;4217366;27;20229;-51
2022/12/04 00:33:47;;;;;;;12.70;11.50;;;;;;;2.30;100.00;98349.81;4221028;27;20202;-50
2022/12/04 00:35:56;;;;;;;12.93;11.15;;;;;;;2.21;100.00;98345.63;4224401;27;20235;-51
2022/12/04 00:37:58;;;;;;;17.00;11.48;;;;;;;2.10;100.00;98332.72;4240466;27;20564;-52
2022/12/04 00:40:00;;;;;;;12.57;11.23;;;;;;;2.12;100.00;98336.03;4218794;27;20229;-51
2022/12/04 00:42:01;;;;;;;13.95;11.98;;;;;;;2.01;100.00;98338.50;4204059;28;20215;-50
2022/12/04 00:44:03;;;;;;;13.20;10.85;;;;;;;1.99;100.00;98333.28;4220224;27;20245;-51
2022/12/04 00:46:05;;;;;;;12.93;11.50;;;;;;;1.84;100.00;98337.16;4221162;27;20217;-51
2022/12/04 00:48:07;;;;;;;11.13;10.10;;;;;;;1.95;100.00;98342.00;4236493;27;20214;-51
2022/12/04 00:50:10;;;;;;;13.85;12.40;;;;;;;1.88;100.00;98338.44;4219838;27;20236;-50
2022/12/04 00:52:12;;;;;;;17.77;9.75;;;;;;;1.89;100.00;98340.91;4220667;27;20557;-52
2022/12/04 00:54:14;;;;;;;12.63;10.68;;;;;;;2.01;100.00;98354.69;4220548;27;20239;-50
2022/12/04 00:56:20;;;;;;;13.35;11.95;;;;;;;1.67;100.00;98346.63;4223971;28;20284;-51
2022/12/04 00:58:22;;;;;;;12.20;10.95;;;;;;;1.83;100.00;98351.66;4216726;28;20202;-50
2022/12/04 01:00:24;;;;;;;12.25;11.20;;;;;;;1.81;100.00;98343.78;4207456;28;20203;-51
2022/12/04 01:02:26;;;;;;;12.85;11.55;;;;;;;1.73;100.00;98337.72;4221982;27;20203;-51
2022/12/04 01:04:27;;;;;;;13.63;12.43;;;;;;;1.64;100.00;98334.34;4219019;27;20250;-52
2022/12/04 01:06:32;;;;;;;15.93;10.40;;;;;;;1.66;100.00;98337.69;4220967;27;20611;-52
2022/12/04 01:08:34;;;;;;;12.77;11.43;;;;;;;1.58;100.00;98329.75;4207385;28;20214;-51
2022/12/04 01:10:41;;;;;;;13.68;12.43;;;;;;;1.70;100.00;98333.56;4235676;27;20781;-50
2022/12/04 01:12:42;;;;;;;12.98;11.73;;;;;;;1.72;100.00;98344.97;4220199;27;20700;-51
2022/12/04 01:14:44;;;;;;;13.15;11.88;;;;;;;1.81;100.00;98348.34;4238224;27;20197;-51
2022/12/04 01:16:46;;;;;;;12.35;11.05;;;;;;;2.03;100.00;98342.66;4239115;27;20204;-52
2022/12/04 01:18:49;;;;;;;11.57;9.90;;;;;;;2.07;100.00;98333.13;4217571;27;20218;-51
2022/12/04 01:20:51;;;;;;;12.18;10.80;;;;;;;2.01;100.00;98346.59;4222477;27;20241;-50
2022/12/04 01:22:53;;;;;;;11.95;10.73;;;;;;;1.88;100.00;98350.03;4218850;28;20849;-50
2022/12/04 01:24:55;;;;;;;12.10;10.85;;;;;;;1.96;100.00;98346.34;4206306;28;20306;-50
2022/12/04 01:26:57;;;;;;;12.52;11.43;;;;;;;1.77;100.00;98369.50;4220321;27;20666;-50
2022/12/04 01:28:59;;;;;;;12.23;11.13;;;;;;;1.81;100.00;98369.94;4226259;28;20311;-51
2022/12/04 01:31:04;;;;;;;11.15;9.77;;;;;;;1.87;100.00;98361.84;4239845;27;20222;-51
2022/12/04 01:33:06;;;;;;;11.60;10.20;;;;;;;1.73;100.00;98356.59;4233636;27;20984;-53
2022/12/04 01:35:08;;;;;;;11.63;10.57;;;;;;;1.77;100.00;98361.41;4236906;27;20225;-50
2022/12/04 01:37:09;;;;;;;11.82;10.77;;;;;;;1.67;100.00;98352.81;4224992;28;20677;-51
2022/12/04 01:39:11;;;;;;;10.63;9.73;;;;;;;1.60;100.00;98338.47;4221259;28;20761;-51
2022/12/04 01:41:15;;;;;;;10.60;9.55;;;;;;;1.71;100.00;98347.88;4223078;27;20217;-51
2022/12/04 01:43:18;;;;;;;13.07;11.85;;;;;;;1.78;100.00;98359.53;4222881;27;20205;-50
2022/12/04 01:45:46;;;;;;;11.77;10.65;;;;;;;1.77;100.00;98364.09;4239699;27;20732;-50
2022/12/04 01:47:48;;;;;;;11.38;10.38;;;;;;;1.85;100.00;98358.53;4225612;27;20280;-50
2022/12/04 01:49:50;;;;;;;12.45;11.20;;;;;;;1.90;100.00;98368.72;4242044;27;20255;-51
2022/12/04 01:51:56;;;;;;;12.30;11.30;;;;;;;1.87;100.00;98363.75;4225016;27;20723;-51
2022/12/04 01:54:18;;;;;;;9.25;8.10;;;;;;;1.69;100.00;98366.94;4224321;27;20690;-51
2022/12/04 01:56:24;;;;;;;9.55;8.65;;;;;;;1.67;100.00;98382.47;4225499;27;20328;-50
2022/12/04 01:58:30;;;;;;;10.43;9.60;;;;;;;1.67;100.00;98382.47;4223425;27;20210;-50
2022/12/04 02:00:32;;;;;;;11.70;10.20;;;;;;;1.74;100.00;98374.44;4228599;27;20316;-50
2022/12/04 02:02:40;;;;;;;11.05;9.95;;;;;;;1.51;100.00;98373.88;4240897;27;20197;-50
2022/12/04 02:04:42;;;;;;;10.40;9.45;;;;;;;1.63;100.00;98366.91;4219023;27;20791;-51
2022/12/04 02:06:44;;;;;;;9.32;8.32;;;;;;;1.60;100.00;98362.72;4221989;27;20246;-51
2022/12/04 02:08:46;;;;;;;9.95;9.05;;;;;;;1.48;100.00;98358.91;4205867;28;20209;-50
2022/12/04 02:11:08;;;;;;;9.25;8.30;;;;;;;1.59;100.00;98355.69;4242706;27;20236;-50
2022/12/04 02:13:22;;;;;;;9.93;9.05;;;;;;;1.44;100.00;98351.41;4210142;27;20592;-51
2022/12/04 02:15:33;;;;;;;10.10;8.73;;;;;;;1.47;100.00;98354.56;4227306;27;20229;-50
2022/12/04 02:17:48;;;;;;;11.15;9.88;;;;;;;1.51;100.00;98347.75;4224737;27;20209;-50
2022/12/04 02:20:05;;;;;;;8.45;7.85;;;;;;;1.44;100.00;98346.88;4226724;27;20209;-52
2022/12/04 02:22:19;;;;;;;9.45;8.57;;;;;;;1.43;100.00;98334.44;4224600;27;20214;-50
2022/12/04 02:24:51;;;;;;;11.77;9.70;;;;;;;1.40;100.00;98344.78;4222457;27;20677;-50
2022/12/04 02:27:05;;;;;;;10.13;9.23;;;;;;;1.37;100.00;98335.22;4222660;27;20244;-52
2022/12/04 02:29:32;;;;;;;9.80;8.73;;;;;;;1.58;100.00;98331.59;4237977;27;20197;-52
2022/12/04 02:31:52;;;;;;;10.75;9.68;;;;;;;1.45;100.00;98337.75;4239217;27;20320;-50
2022/12/04 02:34:06;;;;;;;10.77;9.77;;;;;;;1.43;100.00;98334.44;4240555;27;20208;-50
2022/12/04 02:36:23;;;;;;;11.13;10.07;;;;;;;1.48;100.00;98336.53;4206545;28;20222;-50
2022/12/04 02:38:42;;;;;;;10.60;9.35;;;;;;;1.44;100.00;98328.00;4224857;27;20206;-50
2022/12/04 02:40:53;;;;;;;10.52;9.45;;;;;;;1.39;100.00;98335.00;4227003;27;20244;-50
2022/12/04 02:43:02;;;;;;;10.75;9.65;;;;;;;1.37;100.00;98337.06;4222546;27;20225;-50
2022/12/04 02:45:09;;;;;;;11.70;9.95;;;;;;;1.41;100.00;98341.84;4224765;27;20229;-52
2022/12/04 02:47:12;;;;;;;10.23;9.32;;;;;;;1.29;100.00;98338.03;4210937;28;20290;-52
2022/12/04 02:49:18;;;;;;;11.10;10.07;;;;;;;1.40;100.00;98339.38;4239451;27;20309;-52
2022/12/04 02:51:23;;;;;;;11.68;10.60;;;;;;;1.35;100.00;98347.22;4240099;27;20224;-50
2022/12/04 02:53:29;;;;;;;11.13;10.02;;;;;;;1.37;100.00;98340.59;4241981;27;20762;-50
2022/12/04 02:55:39;;;;;;;12.10;10.88;;;;;;;1.40;100.00;98340.19;4208312;28;21219;-49
2022/12/04 02:57:46;;;;;;;11.70;10.70;;;;;;;1.49;100.00;98343.59;4221475;27;20214;-50
2022/12/04 02:59:49;;;;;;;11.15;10.15;;;;;;;1.40;100.00;98360.94;4227253;27;20240;-49
2022/12/04 03:01:54;;;;;;;10.23;9.23;;;;;;;1.44;100.00;98351.41;4206198;28;20233;-50
2022/12/04 03:04:04;;;;;;;11.65;10.40;;;;;;;1.60;100.00;98346.56;4217544;27;20212;-49
2022/12/04 03:06:11;;;;;;;10.88;9.88;;;;;;;1.35;100.00;98353.44;4208446;28;20309;-49
2022/12/04 03:08:17;;;;;;;11.40;10.27;;;;;;;1.41;100.00;98360.72;4221558;27;20237;-50
2022/12/04 03:10:29;;;;;;;11.32;10.32;;;;;;;1.42;100.00;98351.59;4208386;28;20642;-50
2022/12/04 03:13:00;;;;;;;11.13;10.15;;;;;;;1.53;100.00;98355.66;4225085;27;20210;-49
2022/12/04 03:15:08;;;;;;;10.32;9.40;;;;;;;1.52;100.00;98356.66;4214613;28;20221;-50
2022/12/04 03:17:21;;;;;;;11.98;10.05;;;;;;;1.55;100.00;98354.41;4225784;27;20248;-49
2022/12/04 03:19:27;;;;;;;10.90;9.80;;;;;;;1.39;100.00;98348.47;4227218;27;20747;-49
2022/12/04 03:21:33;;;;;;;13.75;10.93;;;;;;;1.35;100.00;98344.53;4209911;28;20236;-50
2022/12/04 03:23:53;;;;;;;12.05;10.93;;;;;;;1.32;100.00;98343.06;4238593;27;20243;-51
2022/12/04 03:26:02;;;;;;;10.30;9.18;;;;;;;1.25;100.00;98342.16;4238094;27;20332;-50
2022/12/04 03:28:07;;;;;;;11.98;10.40;;;;;;;1.27;100.00;98337.41;4237724;27;20220;-50
2022/12/04 03:30:15;;;;;;;11.70;10.07;;;;;;;1.40;100.00;98332.13;4225900;27;20206;-50
2022/12/04 03:32:48;;;;;;;10.70;9.60;;;;;;;1.35;100.00;98331.88;4237868;27;20229;-50
2022/12/04 03:35:18;;;;;;;31.58;10.25;;;;;;;1.36;100.00;98333.56;4221060;27;20222;-50
2022/12/04 03:37:30;;;;;;;11.35;10.25;;;;;;;1.40;100.00;98342.91;4223590;27;20198;-52
2022/12/04 03:40:10;;;;;;;11.23;10.18;;;;;;;1.50;100.00;98342.56;4211289;28;20217;-51
2022/12/04 03:42:20;;;;;;;11.75;10.55;;;;;;;1.53;100.00;98334.91;4229636;27;20822;-51
2022/12/04 03:44:26;;;;;;;11.93;10.73;;;;;;;1.47;100.00;98330.28;4208710;28;20210;-50
2022/12/04 03:46:35;;;;;;;12.38;11.10;;;;;;;1.40;100.00;98340.19;4222874;27;20256;-51
2022/12/04 03:48:44;;;;;;;11.20;10.02;;;;;;;1.47;100.00;98345.66;4237800;27;20628;-50
2022/12/04 03:50:57;;;;;;;12.93;11.63;;;;;;;1.44;100.00;98335.25;4223895;27;20252;-50
2022/12/04 03:53:05;;;;;;;11.48;10.25;;;;;;;1.57;100.00;98324.56;4224482;27;20286;-50
2022/12/04 03:55:38;;;;;;;12.65;11.48;;;;;;;1.47;100.00;98318.69;4213361;28;20237;-50
2022/12/04 03:57:43;;;;;;;10.98;9.82;;;;;;;1.38;100.00;98315.31;4220674;27;20289;-52
2022/12/04 04:00:08;;;;;;;11.23;9.90;;;;;;;1.33;100.00;98322.34;4239969;27;20202;-50
2022/12/04 04:02:14;;;;;;;11.30;10.20;;;;;;;1.32;100.00;98321.50;4203910;28;20226;-49
2022/12/04 04:04:23;;;;;;;11.68;10.68;;;;;;;1.44;100.00;98319.94;4225203;27;20249;-49
2022/12/04 04:06:32;;;;;;;11.30;10.25;;;;;;;1.48;100.00;98321.19;4221376;27;20622;-49
2022/12/04 04:08:38;;;;;;;12.55;11.55;;;;;;;1.44;100.00;98313.69;4210666;28;20286;-50
2022/12/04 04:10:40;;;;;;;11.38;10.27;;;;;;;1.36;100.00;98303.91;4225001;27;20213;-49
2022/12/04 04:24:13;;;;;;;9.77;8.82;;;;;;;1.32;100.00;98299.94;4208687;27;20292;-50
2022/12/04 04:25:06;;;;;;;11.45;10.45;;;;;;;1.13;100.00;98311.41;4239144;27;20208;-50
2022/12/04 04:27:08;;;;;;;13.20;11.90;;;;;;;1.16;100.00;98313.72;4220968;27;20298;-51
2022/12/04 04:29:10;;;;;;;11.55;9.95;;;;;;;1.28;100.00;98324.78;4236690;27;20202;-51
2022/12/04 04:31:21;;;;;;;10.85;9.85;;;;;;;1.14;100.00;98323.84;4225365;27;20692;-50
2022/12/04 04:33:23;;;;;;;11.07;10.05;;;;;;;1.20;100.00;98322.25;4236407;27;20211;-50
2022/12/04 04:35:40;;;;;;;10.48;9.63;;;;;;;1.16;100.00;98315.56;4208422;28;20749;-52
2022/12/04 04:37:55;;;;;;;12.13;10.75;;;;;;;1.14;100.00;98315.75;4220896;27;20244;-49
2022/12/04 04:40:04;;;;;;;12.15;10.95;;;;;;;1.19;100.00;98316.00;4223253;27;20233;-49
2022/12/04 04:42:48;;;;;;;12.95;10.88;;;;;;;1.03;100.00;98316.31;4233883;27;20201;-50
2022/12/04 04:45:12;;;;;;;11.98;10.93;;;;;;;1.16;100.00;98320.97;4196928;28;20300;-49
2022/12/04 04:47:26;;;;;;;11.52;10.43;;;;;;;1.08;100.00;98319.22;4236893;27;20208;-49
2022/12/04 04:49:31;;;;;;;12.38;11.30;;;;;;;1.03;100.00;98316.31;4222573;27;20243;-49
2022/12/04 04:51:34;;;;;;;12.97;10.87;;;;;;;1.05;100.00;98325.03;4219011;28;20244;-51
2022/12/04 04:53:38;;;;;;;12.63;11.07;;;;;;;1.11;100.00;98324.25;4221613;27;20268;-50
2022/12/04 04:55:40;;;;;;;13.13;10.88;;;;;;;1.08;100.00;98316.53;4222451;27;20222;-49
2022/12/04 04:57:42;;;;;;;10.50;9.43;;;;;;;1.18;100.00;98318.88;4224531;28;20673;-49
2022/12/04 04:59:44;;;;;;;12.15;11.20;;;;;;;1.20;100.00;98323.06;4240314;27;20206;-50
2022/12/04 05:01:46;;;;;;;10.93;9.63;;;;;;;1.25;100.00;98317.91;4238608;27;20230;-50
2022/12/04 05:03:48;;;;;;;12.98;11.88;;;;;;;1.20;100.00;98325.75;4234413;27;20288;-51
2022/12/04 05:05:50;;;;;;;12.82;11.52;;;;;;;1.19;100.00;98320.56;4222371;28;20258;-49
2022/12/04 05:07:52;;;;;;;11.50;10.00;;;;;;;1.12;100.00;98320.53;4207430;28;20237;-50
2022/12/04 05:09:53;;;;;;;11.63;10.43;;;;;;;1.08;100.00;98324.63;4233296;27;20677;-50
2022/12/04 05:11:56;;;;;;;10.55;9.68;;;;;;;1.24;100.00;98329.72;4220499;27;22313;-49
2022/12/04 05:13:58;;;;;;;11.00;10.07;;;;;;;1.29;100.00;98327.25;4219724;27;20608;-50
2022/12/04 05:16:02;;;;;;;15.27;13.07;;;;;;;1.22;100.00;98326.38;4207369;27;20352;-49
2022/12/04 05:18:04;;;;;;;12.05;10.95;;;;;;;1.21;100.00;98329.28;4201090;28;20230;-49
2022/12/04 05:20:06;;;;;;;10.73;9.82;;;;;;;1.34;100.00;98332.09;4221294;27;20294;-50
2022/12/04 05:22:08;;;;;;;11.90;10.32;;;;;;;1.18;100.00;98335.91;4226523;28;20214;-49
2022/12/04 05:24:10;;;;;;;11.55;10.52;;;;;;;1.15;100.00;98344.34;4208383;28;20264;-50
2022/12/04 05:26:12;;;;;;;10.38;9.38;;;;;;;1.30;100.00;98338.88;4238178;27;20732;-50
2022/12/04 05:28:14;;;;;;;11.48;10.38;;;;;;;1.35;100.00;98342.66;4221139;28;20270;-50
2022/12/04 05:30:16;;;;;;;12.85;11.52;;;;;;;1.37;100.00;98339.75;4240895;27;20667;-50
2022/12/04 05:32:18;;;;;;;11.70;10.63;;;;;;;1.42;100.00;98343.53;4222651;28;20235;-49
2022/12/04 05:34:20;;;;;;;10.85;9.77;;;;;;;1.30;100.00;98338.88;4223468;28;20309;-49
2022/12/04 05:36:22;;;;;;;10.38;9.48;;;;;;;1.28;100.00;98341.78;4220394;28;20656;-49
2022/12/04 05:38:23;;;;;;;10.50;9.43;;;;;;;1.34;100.00;98343.69;4225196;28;20284;-50
2022/12/04 05:40:25;;;;;;;10.82;9.80;;;;;;;1.37;100.00;98339.75;4221221;28;20211;-50
2022/12/04 05:42:27;;;;;;;10.77;9.77;;;;;;;1.33;100.00;98344.72;4223162;28;20228;-50
2022/12/04 05:44:29;;;;;;;11.35;10.27;;;;;;;1.34;100.00;98346.38;4224189;28;20297;-49
2022/12/04 05:46:31;;;;;;;9.95;9.02;;;;;;;1.37;100.00;98345.16;4218466;28;20337;-50
2022/12/04 05:48:34;;;;;;;11.50;10.40;;;;;;;1.45;100.00;98359.31;4237395;27;20206;-50
2022/12/04 05:50:37;;;;;;;10.88;9.88;;;;;;;1.42;100.00;98354.31;4224423;28;20249;-50
2022/12/04 05:52:39;;;;;;;11.82;10.65;;;;;;;1.46;100.00;98352.91;4238243;27;20576;-50
2022/12/04 05:54:41;;;;;;;10.30;9.30;;;;;;;1.38;100.00;98361.13;4234846;27;20213;-50
2022/12/04 05:56:43;;;;;;;12.60;10.85;;;;;;;1.30;100.00;98363.97;4202669;28;20665;-50
2022/12/04 05:58:45;;;;;;;11.75;10.52;;;;;;;1.48;100.00;98364.31;4234397;27;20673;-50
2022/12/04 06:00:47;;;;;;;14.57;11.70;;;;;;;1.52;100.00;98365.59;4203217;28;20862;-50
2022/12/04 06:02:48;;;;;;;11.15;10.02;;;;;;;1.62;100.00;98357.97;4222213;28;20385;-50
2022/12/04 06:04:50;;;;;;;11.52;10.43;;;;;;;1.53;100.00;98361.84;4209385;28;20198;-50
2022/12/04 06:06:53;;;;;;;10.82;9.73;;;;;;;1.42;100.00;98367.78;4214810;28;20234;-51
2022/12/04 06:08:57;;;;;;;11.77;10.60;;;;;;;1.40;100.00;98375.25;4227451;27;20263;-50
2022/12/04 06:10:59;;;;;;;12.75;10.93;;;;;;;1.55;100.00;98367.88;4216861;28;20726;-51
2022/12/04 06:13:00;;;;;;;12.15;10.88;;;;;;;1.58;100.00;98362.09;4224183;28;20202;-51
2022/12/04 06:15:03;;;;;;;13.05;11.05;;;;;;;1.60;100.00;98362.72;4220332;28;20257;-51
2022/12/04 06:17:05;;;;;;;12.02;10.65;;;;;;;1.57;100.00;98370.38;4221191;28;20235;-50
2022/12/04 06:19:15;;;;;;;11.90;10.75;;;;;;;1.54;100.00;98368.91;4218713;28;20217;-49
2022/12/04 06:21:18;;;;;;;10.45;9.55;;;;;;;1.48;100.00;98360.78;4221112;28;20240;-50
2022/12/04 06:23:20;;;;;;;12.68;11.32;;;;;;;1.50;100.00;98361.41;4218751;28;20251;-51
2022/12/04 06:25:22;;;;;;;11.95;10.80;;;;;;;1.49;100.00;98355.19;4236552;27;20221;-52
2022/12/04 06:27:23;;;;;;;12.07;10.98;;;;;;;1.30;100.00;98350.50;4218923;28;20206;-50
2022/12/04 06:29:29;;;;;;;14.55;12.48;;;;;;;1.31;100.00;98351.31;4239140;27;20200;-50
2022/12/04 06:31:32;;;;;;;10.60;9.50;;;;;;;1.20;100.00;98358.09;4204243;28;20769;-50
2022/12/04 06:33:34;;;;;;;13.93;12.02;;;;;;;1.11;100.00;98351.19;4206178;28;20264;-50
2022/12/04 06:35:36;;;;;;;12.20;11.07;;;;;;;1.06;100.00;98353.63;4224409;27;20607;-51
2022/12/04 06:37:38;;;;;;;11.63;10.52;;;;;;;1.19;100.00;98352.88;4206007;28;21081;-50
2022/12/04 06:39:40;;;;;;;12.27;10.80;;;;;;;1.21;100.00;98357.06;4221821;27;20708;-51
2022/12/04 06:41:41;;;;;;;10.70;9.80;;;;;;;1.24;100.00;98351.28;4228479;27;20281;-50
2022/12/04 06:43:44;;;;;;;14.07;12.40;;;;;;;1.25;100.00;98358.34;4222268;27;20255;-50
2022/12/04 06:45:45;;;;;;;16.67;9.68;;;;;;;1.29;100.00;98354.22;4222550;27;20318;-50
2022/12/04 06:47:47;;;;;;;11.20;10.10;;;;;;;1.39;100.00;98354.72;4239845;27;20202;-50
2022/12/04 06:49:50;;;;;;;11.98;10.80;;;;;;;1.45;100.00;98359.31;4221905;27;20233;-50
2022/12/04 06:51:52;;;;;;;11.73;10.48;;;;;;;1.40;100.00;98356.38;4224392;27;20210;-50
2022/12/04 06:53:54;;;;;;;12.45;11.18;;;;;;;1.38;100.00;98352.22;4225670;27;20206;-50
2022/12/04 06:55:57;;;;;;;13.73;11.18;;;;;;;1.37;100.00;98346.00;4224572;27;20225;-51
2022/12/04 06:57:59;;;;;;;11.55;10.40;;;;;;;1.35;100.00;98350.72;4239035;27;20736;-50
2022/12/04 07:00:01;;;;;;;10.35;8.90;;;;;;;1.31;100.00;98345.94;4223825;27;20241;-50
2022/12/04 07:02:03;;;;;;;14.73;10.98;;;;;;;1.22;100.00;98347.94;4224589;27;20198;-49
2022/12/04 07:04:05;;;;;;;12.82;11.45;;;;;;;1.34;100.00;98357.16;4206259;28;20780;-50
2022/12/04 07:06:20;;;;;;;14.90;10.88;;;;;;;1.36;100.00;98357.81;4217215;28;20247;-50
2022/12/04 07:08:21;;;;;;;13.07;11.30;;;;;;;1.24;100.00;98351.28;4234512;27;20632;-51
2022/12/04 07:10:23;;;;;;;13.02;10.57;;;;;;;1.21;100.00;98351.66;4226451;27;20633;-50
2022/12/04 07:12:25;;;;;;;11.70;10.48;;;;;;;1.27;100.00;98342.81;4222541;27;20285;-49
2022/12/04 07:14:27;;;;;;;12.68;9.45;;;;;;;1.22;100.00;98344.44;4226187;27;20803;-50
2022/12/04 07:16:29;;;;;;;11.00;9.80;;;;;;;1.29;100.00;98348.81;4227840;27;20218;-50
2022/12/04 07:18:39;;;;;;;12.00;10.90;;;;;;;1.38;100.00;98347.66;4226089;27;20325;-50
2022/12/04 07:20:41;;;;;;;10.43;8.32;;;;;;;1.30;100.00;98350.50;4220985;27;20207;-50
2022/12/04 07:22:42;;;;;;;10.35;9.05;;;;;;;1.36;100.00;98354.28;4218305;27;20359;-50
2022/12/04 07:24:44;;;;;;;9.75;8.82;;;;;;;1.38;100.00;98355.75;4224545;27;20202;-50
2022/12/04 07:26:46;;;;;;;9.85;8.93;;;;;;;1.45;100.00;98353.09;4220005;27;20230;-50
2022/12/04 07:28:48;;;;;;;11.90;10.70;;;;;;;1.59;100.00;98350.28;4222593;27;20198;-50
2022/12/04 07:30:50;;;;;;;9.65;7.63;;;;;;;1.54;100.00;98355.44;4225733;27;20284;-50
2022/12/04 07:32:51;;;;;;;12.63;10.23;;;;;;;1.56;100.00;98355.25;4239840;27;20212;-52
2022/12/04 07:34:53;;;;;;;10.77;9.65;;;;;;;1.45;100.00;98355.78;4219536;27;20301;-50
2022/12/04 07:36:55;;;;;;;11.40;8.57;;;;;;;1.53;100.00;98356.47;4222378;27;20201;-50
2022/12/04 07:38:57;;;;;;;9.95;8.95;;;;;;;1.46;100.00;98355.59;4208316;28;20207;-51
2022/12/04 07:41:00;;;;;;;9.85;8.85;;;;;;;1.46;100.00;98365.53;4236734;27;20241;-50
2022/12/04 07:43:01;;;;;;;11.57;10.23;;;;;;;1.48;100.00;98364.31;4226496;27;21095;-50
2022/12/04 07:45:04;;;;;;;9.95;8.93;;;;;;;1.40;100.00;98353.69;4223345;27;20233;-52
2022/12/04 07:47:05;;;;;;;10.85;9.85;;;;;;;1.56;100.00;98348.00;4237807;27;20240;-50
2022/12/04 07:49:10;;;;;;;9.50;8.50;;;;;;;1.56;100.00;98355.25;4204564;28;20235;-50
2022/12/04 07:51:15;;;;;;;10.15;9.13;;;;;;;1.56;100.00;98348.00;4206909;28;20199;-51
2022/12/04 07:53:17;;;;;;;9.05;8.15;;;;;;;1.54;100.00;98341.94;4237359;27;20221;-50
2022/12/04 07:55:18;;;;;;;10.30;8.88;;;;;;;1.41;100.00;98358.03;4224293;27;20720;-50
2022/12/04 07:57:23;;;;;;;11.07;9.77;;;;;;;1.54;100.00;98346.53;4227066;27;20213;-52
2022/12/04 07:59:25;;;;;;;15.88;9.23;;;;;;;1.46;100.00;98352.03;4239832;27;20292;-51
2022/12/04 08:01:27;;;;;;;9.73;8.82;;;;;;;1.51;100.00;98353.16;4239182;27;20233;-50
2022/12/04 08:03:29;;;;;;;10.85;9.75;;;;;;;1.44;100.00;98346.88;4237461;27;20206;-50
2022/12/04 08:05:31;;;;;;;11.07;10.07;;;;;;;1.47;100.00;98357.25;4240070;27;20902;-51
2022/12/04 08:07:33;;;;;;;10.60;9.52;;;;;;;1.54;100.00;98363.53;4205329;28;20250;-50
2022/12/04 08:09:35;;;;;;;8.48;7.57;;;;;;;1.52;100.00;98362.91;4221017;27;20237;-49
2022/12/04 08:11:37;;;;;;;10.20;9.15;;;;;;;1.49;100.00;98355.19;4225911;27;20227;-50
2022/12/04 08:13:39;;;;;;;10.73;8.98;;;;;;;1.58;100.00;98364.81;4217167;27;20250;-50
2022/12/04 08:15:41;;;;;;;10.10;8.98;;;;;;;1.72;100.00;98361.16;4219125;27;20309;-51
2022/12/04 08:17:43;;;;;;;9.90;8.73;;;;;;;1.67;100.00;98363.59;4239413;27;20194;-50
2022/12/04 08:19:45;;;;;;;8.65;7.75;;;;;;;1.72;100.00;98360.31;4223500;27;20760;-52
2022/12/04 08:21:47;;;;;;;9.70;8.70;;;;;;;1.66;100.00;98361.94;4221978;27;20210;-50
2022/12/04 08:23:53;;;;;;;10.48;9.55;;;;;;;1.78;100.00;98368.47;4219973;27;20263;-50
2022/12/04 08:25:58;;;;;;;10.85;9.80;;;;;;;1.80;100.00;98362.88;4221369;27;20228;-51
2022/12/04 08:28:00;;;;;;;10.77;9.73;;;;;;;1.88;100.00;98355.44;4226702;27;20679;-50
2022/12/04 08:30:02;;;;;;;8.30;7.45;;;;;;;1.89;100.00;98351.69;4236814;27;20201;-50
2022/12/04 08:32:04;;;;;;;9.00;8.20;;;;;;;1.80;100.00;98350.19;4236117;27;20201;-50
2022/12/04 08:34:06;;;;;;;7.75;6.70;;;;;;;1.73;100.00;98346.63;4223354;27;20225;-50
2022/12/04 08:36:11;;;;;;;8.57;7.78;;;;;;;1.86;100.00;98335.91;4220193;27;20283;-50
2022/12/04 08:38:13;;;;;;;11.68;9.32;;;;;;;1.66;100.00;98342.22;4225618;27;20238;-50
2022/12/04 08:40:14;;;;;;;10.77;9.57;;;;;;;1.67;100.00;98346.63;4211188;27;20214;-51
2022/12/04 08:42:16;;;;;;;7.65;6.95;;;;;;;1.65;100.00;98349.50;4232539;27;20652;-50
2022/12/04 08:44:18;;;;;;;9.85;8.80;;;;;;;1.69;100.00;98344.53;4206731;28;20202;-51
2022/12/04 08:46:21;;;;;;;7.63;6.70;;;;;;;1.80;100.00;98352.91;4203330;28;20298;-50
2022/12/04 08:48:23;;;;;;;8.75;7.82;;;;;;;1.66;100.00;98350.31;4221755;27;20289;-50
2022/12/04 08:50:24;;;;;;;8.32;7.43;;;;;;;1.73;100.00;98353.91;4220671;27;20210;-51
2022/12/04 08:52:26;;;;;;;9.20;8.30;;;;;;;1.79;100.00;98359.31;4204301;28;20231;-50
2022/12/04 08:54:28;;;;;;;10.10;9.13;;;;;;;1.81;100.00;98359.13;4236135;27;20220;-50
2022/12/04 08:56:36;;;;;;;10.30;9.27;;;;;;;1.91;100.00;98349.66;4206197;27;20226;-50
2022/12/04 08:58:38;;;;;;;9.65;8.73;;;;;;;1.84;100.00;98354.19;4224902;27;20210;-51
2022/12/04 09:00:40;;;;;;;9.32;8.35;;;;;;;1.81;100.00;98359.94;4225460;27;20270;-50
2022/12/04 09:02:42;;;;;;;8.93;7.95;;;;;;;1.89;100.00;98357.09;4221245;27;20266;-51
2022/12/04 09:04:44;;;;;;;8.55;7.75;;;;;;;1.94;100.00;98354.63;4219000;28;20625;-51
2022/12/04 09:06:46;;;;;;;8.57;7.68;;;;;;;1.98;100.00;98355.91;4236350;27;20232;-51
2022/12/04 09:08:52;;;;;;;8.57;7.00;;;;;;;1.81;100.00;98354.56;4221134;27;20340;-50
2022/12/04 09:10:54;;;;;;;10.48;8.23;;;;;;;1.82;100.00;98352.72;4219331;27;21892;-51
2022/12/04 09:12:55;;;;;;;9.65;7.60;;;;;;;1.80;100.00;98342.09;4218353;28;20259;-50
2022/12/04 09:14:57;;;;;;;9.73;8.75;;;;;;;1.86;100.00;98340.47;4237429;27;20589;-50
2022/12/04 09:16:59;;;;;;;9.93;8.50;;;;;;;1.80;100.00;98344.81;4222716;28;20285;-52
2022/12/04 09:19:01;;;;;;;8.82;8.02;;;;;;;1.87;100.00;98356.47;4220733;27;20700;-51
2022/12/04 09:21:07;;;;;;;9.57;8.20;;;;;;;1.93;100.00;98352.97;4221263;27;20212;-52
2022/12/04 09:23:09;;;;;;;10.38;8.98;;;;;;;2.02;100.00;98350.94;4224459;28;20685;-51
2022/12/04 09:25:12;;;;;;;8.65;7.85;;;;;;;1.79;100.00;98343.16;4205435;28;20226;-51
2022/12/04 09:27:15;;;;;;;8.90;8.05;;;;;;;1.81;100.00;98351.03;4239341;27;20274;-52
2022/12/04 09:29:17;;;;;;;10.68;9.57;;;;;;;1.84;100.00;98354.19;4225450;28;20209;-51
2022/12/04 09:31:20;;;;;;;11.38;8.98;;;;;;;1.77;100.00;98352.47;4220694;27;20754;-51
2022/12/04 09:33:22;;;;;;;10.57;8.10;;;;;;;1.78;100.00;98349.56;4215062;28;20214;-52
2022/12/04 09:35:24;;;;;;;7.45;6.75;;;;;;;1.83;100.00;98341.72;4234753;27;20225;-51
2022/12/04 09:37:26;;;;;;;8.18;7.43;;;;;;;1.80;100.00;98339.41;4234842;27;20264;-50
2022/12/04 09:39:28;;;;;;;9.05;8.02;;;;;;;1.74;100.00;98337.50;4218514;28;20581;-51
2022/12/04 09:41:35;;;;;;;10.32;8.15;;;;;;;1.78;100.00;98333.41;4223373;28;20324;-50
2022/12/04 09:43:47;;;;;;;10.60;9.60;;;;;;;1.71;100.00;98334.38;4226168;28;20221;-51
2022/12/04 09:45:52;;;;;;;8.60;7.70;;;;;;;1.78;100.00;98335.25;4217582;28;20218;-50
2022/12/04 09:47:57;;;;;;;13.23;9.32;;;;;;;1.72;100.00;98334.19;4238535;27;20231;-51
2022/12/04 09:50:14;;;;;;;11.25;8.57;;;;;;;1.79;100.00;98342.31;4216103;28;20641;-50